createdAt,value
2018-05-27T00:00:20.315Z,4.00
2018-05-27T00:01:20.304Z,4.00
2018-05-27T00:02:20.292Z,4.00
2018-05-27T00:03:20.296Z,4.00
2018-05-27T00:04:20.272Z,8.00
2018-05-27T00:05:20.408Z,4.00
2018-05-27T00:06:20.245Z,4.00
2018-05-27T00:07:20.246Z,4.00
2018-05-27T00:08:20.222Z,4.00
2018-05-27T00:09:20.210Z,4.00
2018-05-27T00:10:20.205Z,4.00
2018-05-27T00:11:20.185Z,4.00
2018-05-27T00:12:20.172Z,4.00
2018-05-27T00:13:20.161Z,4.00
2018-05-27T00:14:20.148Z,4.00
2018-05-27T00:15:20.137Z,4.00
2018-05-27T00:16:20.122Z,4.00
2018-05-27T00:17:20.113Z,4.00
2018-05-27T00:18:20.100Z,4.00
2018-05-27T00:19:20.092Z,4.00
2018-05-27T00:20:20.078Z,4.00
2018-05-27T00:21:20.062Z,4.00
2018-05-27T00:22:20.058Z,4.00
2018-05-27T00:23:20.046Z,4.00
2018-05-27T00:24:20.027Z,4.00
2018-05-27T00:25:20.017Z,4.00
2018-05-27T00:26:20.021Z,4.00
2018-05-27T00:27:19.988Z,4.00
2018-05-27T00:28:19.983Z,4.00
2018-05-27T00:29:19.980Z,4.00
2018-05-27T00:30:19.957Z,4.00
2018-05-27T00:31:19.941Z,4.00
2018-05-27T00:32:19.930Z,4.00
2018-05-27T00:33:19.917Z,4.00
2018-05-27T00:34:19.908Z,4.00
2018-05-27T00:35:19.893Z,4.00
2018-05-27T00:36:19.880Z,4.00
2018-05-27T00:37:19.869Z,4.00
2018-05-27T00:38:19.857Z,4.00
2018-05-27T00:39:19.844Z,4.00
2018-05-27T00:40:19.841Z,4.00
2018-05-27T00:41:19.819Z,4.00
2018-05-27T00:42:19.807Z,4.00
2018-05-27T00:43:19.799Z,4.00
2018-05-27T00:44:19.780Z,4.00
2018-05-27T00:45:19.768Z,4.00
2018-05-27T00:46:19.760Z,4.00
2018-05-27T00:47:19.746Z,4.00
2018-05-27T00:48:19.734Z,4.00
2018-05-27T00:49:19.727Z,4.00
2018-05-27T00:50:19.708Z,4.00
2018-05-27T00:51:19.798Z,8.00
2018-05-27T00:52:19.692Z,4.00
2018-05-27T00:53:19.673Z,4.00
2018-05-27T00:54:19.663Z,4.00
2018-05-27T00:55:19.647Z,4.00
2018-05-27T00:56:19.640Z,4.00
2018-05-27T00:57:19.624Z,4.00
2018-05-27T00:58:19.611Z,4.00
2018-05-27T00:59:19.599Z,4.00
2018-05-27T01:00:19.590Z,4.00
2018-05-27T01:01:19.576Z,4.00
2018-05-27T01:02:19.570Z,4.00
2018-05-27T01:03:19.548Z,4.00
2018-05-27T01:04:19.579Z,4.00
2018-05-27T01:05:19.531Z,4.00
2018-05-27T01:06:19.513Z,4.00
2018-05-27T01:07:19.550Z,4.00
2018-05-27T01:08:19.493Z,4.00
2018-05-27T01:09:19.474Z,4.00
2018-05-27T01:10:19.463Z,4.00
2018-05-27T01:11:19.447Z,4.00
2018-05-27T01:12:19.436Z,4.00
2018-05-27T01:13:19.432Z,4.00
2018-05-27T01:14:19.413Z,4.00
2018-05-27T01:15:19.402Z,4.00
2018-05-27T01:16:19.387Z,4.00
2018-05-27T01:17:19.387Z,4.00
2018-05-27T01:18:19.362Z,4.00
2018-05-27T01:19:19.354Z,4.00
2018-05-27T01:20:19.338Z,4.00
2018-05-27T01:21:19.325Z,4.00
2018-05-27T01:22:19.313Z,4.00
2018-05-27T01:23:19.301Z,4.00
2018-05-27T01:24:19.288Z,4.00
2018-05-27T01:25:19.275Z,4.00
2018-05-27T01:26:19.263Z,4.00
2018-05-27T01:27:19.253Z,4.00
2018-05-27T01:28:19.237Z,4.00
2018-05-27T01:29:19.224Z,4.00
2018-05-27T01:30:19.214Z,4.00
2018-05-27T01:31:19.208Z,4.00
2018-05-27T01:32:19.187Z,4.00
2018-05-27T01:33:19.174Z,4.00
2018-05-27T01:34:19.167Z,4.00
2018-05-27T01:35:19.151Z,4.00
2018-05-27T01:36:19.136Z,4.00
2018-05-27T01:37:19.125Z,4.00
2018-05-27T01:38:19.120Z,4.00
2018-05-27T01:39:19.101Z,4.00
2018-05-27T01:40:19.096Z,4.00
2018-05-27T01:41:19.075Z,4.00
2018-05-27T01:42:19.062Z,4.00
2018-05-27T01:43:19.052Z,4.00
2018-05-27T01:44:19.037Z,4.00
2018-05-27T01:45:19.026Z,4.00
2018-05-27T01:46:19.013Z,4.00
2018-05-27T01:47:19.010Z,4.00
2018-05-27T01:48:18.989Z,4.00
2018-05-27T01:49:18.977Z,4.00
2018-05-27T01:50:18.974Z,8.00
2018-05-27T01:51:18.951Z,4.00
2018-05-27T01:52:18.938Z,4.00
2018-05-27T01:53:18.935Z,4.00
2018-05-27T01:54:18.913Z,4.00
2018-05-27T01:55:18.902Z,4.00
2018-05-27T01:56:18.889Z,4.00
2018-05-27T01:57:18.880Z,4.00
2018-05-27T01:58:18.876Z,4.00
2018-05-27T01:59:18.851Z,4.00
2018-05-27T02:00:18.842Z,8.00
2018-05-27T02:01:18.825Z,4.00
2018-05-27T02:02:18.812Z,8.00
2018-05-27T02:03:18.801Z,8.00
2018-05-27T02:04:18.787Z,8.00
2018-05-27T02:05:18.779Z,8.00
2018-05-27T02:06:18.762Z,8.00
2018-05-27T02:07:18.751Z,8.00
2018-05-27T02:08:18.749Z,8.00
2018-05-27T02:09:18.721Z,8.00
2018-05-27T02:10:18.712Z,8.00
2018-05-27T02:11:18.698Z,8.00
2018-05-27T02:12:18.684Z,8.00
2018-05-27T02:13:18.673Z,8.00
2018-05-27T02:14:18.659Z,8.00
2018-05-27T02:15:18.647Z,8.00
2018-05-27T02:16:18.632Z,8.00
2018-05-27T02:17:18.620Z,8.00
2018-05-27T02:18:18.618Z,8.00
2018-05-27T02:19:18.596Z,8.00
2018-05-27T02:20:18.582Z,8.00
2018-05-27T02:21:18.568Z,8.00
2018-05-27T02:22:18.556Z,8.00
2018-05-27T02:23:18.544Z,8.00
2018-05-27T02:24:18.540Z,4.00
2018-05-27T02:25:18.525Z,4.00
2018-05-27T02:26:18.505Z,4.00
2018-05-27T02:27:18.491Z,4.00
2018-05-27T02:28:18.480Z,4.00
2018-05-27T02:29:18.465Z,4.00
2018-05-27T02:30:18.453Z,4.00
2018-05-27T02:31:18.449Z,4.00
2018-05-27T02:32:18.426Z,4.00
2018-05-27T02:33:18.414Z,4.00
2018-05-27T02:34:18.403Z,4.00
2018-05-27T02:35:18.390Z,4.00
2018-05-27T02:36:18.394Z,4.00
2018-05-27T02:37:18.365Z,8.00
2018-05-27T02:38:18.350Z,8.00
2018-05-27T02:39:18.348Z,8.00
2018-05-27T02:40:18.390Z,8.00
2018-05-27T02:41:18.330Z,8.00
2018-05-27T02:42:18.299Z,4.00
2018-05-27T02:43:18.286Z,8.00
2018-05-27T02:44:18.274Z,8.00
2018-05-27T02:45:18.260Z,12.00
2018-05-27T02:46:18.256Z,8.00
2018-05-27T02:47:18.243Z,12.00
2018-05-27T02:48:18.222Z,8.00
2018-05-27T02:49:18.207Z,12.00
2018-05-27T02:50:18.198Z,12.00
2018-05-27T02:51:18.181Z,12.00
2018-05-27T02:52:18.171Z,12.00
2018-05-27T02:53:18.157Z,16.00
2018-05-27T02:54:18.145Z,16.00
2018-05-27T02:55:18.132Z,20.00
2018-05-27T02:56:18.171Z,24.00
2018-05-27T02:57:18.112Z,20.00
2018-05-27T02:58:18.097Z,24.00
2018-05-27T02:59:18.081Z,32.00
2018-05-27T03:00:18.068Z,28.00
2018-05-27T03:01:18.055Z,28.00
2018-05-27T03:02:18.041Z,36.00
2018-05-27T03:03:18.028Z,40.00
2018-05-27T03:04:18.014Z,40.00
2018-05-27T03:05:18.003Z,44.00
2018-05-27T03:06:17.990Z,48.00
2018-05-27T03:07:17.991Z,56.00
2018-05-27T03:08:17.961Z,60.00
2018-05-27T03:09:21.451Z,68.00
2018-05-27T03:11:12.230Z,84.00
2018-05-27T03:12:12.214Z,92.00
2018-05-27T03:13:12.210Z,104.00
2018-05-27T03:14:14.810Z,108.00
2018-05-27T03:15:12.184Z,120.00
2018-05-27T03:16:12.162Z,132.00
2018-05-27T03:17:12.158Z,140.00
2018-05-27T03:18:12.135Z,152.00
2018-05-27T03:19:12.126Z,160.00
2018-05-27T03:20:12.109Z,172.00
2018-05-27T03:22:12.082Z,188.00
2018-05-27T03:23:12.072Z,196.00
2018-05-27T03:24:12.056Z,208.00
2018-05-27T03:25:12.043Z,216.00
2018-05-27T03:26:12.080Z,232.00
2018-05-27T03:27:12.017Z,244.00
2018-05-27T03:28:12.003Z,264.00
2018-05-27T03:29:55.715Z,300.00
2018-05-27T03:30:55.702Z,316.00
2018-05-27T03:31:55.687Z,336.00
2018-05-27T03:32:55.690Z,360.00
2018-05-27T03:33:55.661Z,384.00
2018-05-27T03:34:55.648Z,408.00
2018-05-27T03:35:55.636Z,436.00
2018-05-27T03:36:55.639Z,468.00
2018-05-27T03:37:55.607Z,492.00
2018-05-27T03:38:55.602Z,520.00
2018-05-27T03:39:55.581Z,548.00
2018-05-27T03:40:55.569Z,580.00
2018-05-27T03:41:55.558Z,612.00
2018-05-27T03:42:55.545Z,640.00
2018-05-27T03:43:55.531Z,672.00
2018-05-27T03:44:55.520Z,692.00
2018-05-27T03:45:55.504Z,720.00
2018-05-27T03:46:55.499Z,740.00
2018-05-27T03:47:55.477Z,764.00
2018-05-27T03:48:55.464Z,792.00
2018-05-27T03:49:58.134Z,828.00
2018-05-27T03:50:55.445Z,856.00
2018-05-27T03:51:56.436Z,880.00
2018-05-27T03:52:55.412Z,912.00
2018-05-27T03:53:55.406Z,940.00
2018-05-27T03:54:55.386Z,968.00
2018-05-27T03:55:55.375Z,1012.00
2018-05-27T03:56:55.359Z,1036.00
2018-05-27T03:57:55.346Z,1072.00
2018-05-27T03:58:55.333Z,1108.00
2018-05-27T03:59:55.321Z,1132.00
2018-05-27T04:00:55.305Z,1160.00
2018-05-27T04:01:55.298Z,1200.00
2018-05-27T04:02:56.088Z,1248.00
2018-05-27T04:03:55.270Z,1276.00
2018-05-27T04:04:55.253Z,1324.00
2018-05-27T04:05:55.255Z,1356.00
2018-05-27T04:06:55.228Z,1388.00
2018-05-27T04:07:55.213Z,1416.00
2018-05-27T04:08:55.199Z,1444.00
2018-05-27T04:09:55.795Z,1464.00
2018-05-27T04:10:55.173Z,1484.00
2018-05-27T04:11:55.165Z,1488.00
2018-05-27T04:12:55.153Z,1488.00
2018-05-27T04:13:55.135Z,1508.00
2018-05-27T04:14:55.124Z,1532.00
2018-05-27T04:15:55.107Z,1560.00
2018-05-27T04:16:55.093Z,1600.00
2018-05-27T04:17:55.081Z,1628.00
2018-05-27T04:18:55.120Z,1652.00
2018-05-27T04:19:55.053Z,1672.00
2018-05-27T04:20:55.041Z,1700.00
2018-05-27T04:21:55.028Z,1724.00
2018-05-27T04:22:55.015Z,1756.00
2018-05-27T04:23:55.001Z,1808.00
2018-05-27T04:24:54.991Z,1876.00
2018-05-27T04:25:54.973Z,1916.00
2018-05-27T04:26:54.984Z,1924.00
2018-05-27T04:27:54.949Z,1968.00
2018-05-27T04:28:54.935Z,2028.00
2018-05-27T04:29:54.922Z,2076.00
2018-05-27T04:30:54.909Z,2152.00
2018-05-27T04:31:54.896Z,2232.00
2018-05-27T04:32:54.880Z,2312.00
2018-05-27T04:33:54.871Z,2416.00
2018-05-27T04:34:54.854Z,2520.00
2018-05-27T04:35:54.847Z,2636.00
2018-05-27T04:36:54.829Z,2740.00
2018-05-27T04:37:54.817Z,2824.00
2018-05-27T04:38:54.803Z,2944.00
2018-05-27T04:39:54.799Z,3068.00
2018-05-27T04:40:54.776Z,3172.00
2018-05-27T04:41:54.772Z,3308.00
2018-05-27T04:42:54.849Z,3452.00
2018-05-27T04:43:54.737Z,3616.00
2018-05-27T04:44:54.771Z,3700.00
2018-05-27T04:45:54.711Z,3896.00
2018-05-27T04:46:54.698Z,4096.00
2018-05-27T04:47:54.684Z,4360.00
2018-05-27T04:48:54.669Z,4524.00
2018-05-27T04:49:54.657Z,4704.00
2018-05-27T04:50:54.644Z,4944.00
2018-05-27T04:51:54.631Z,5064.00
2018-05-27T04:52:54.626Z,5324.00
2018-05-27T04:53:54.604Z,5360.00
2018-05-27T04:54:54.598Z,5468.00
2018-05-27T04:55:54.579Z,5576.00
2018-05-27T04:56:54.567Z,5680.00
2018-05-27T04:57:54.554Z,5744.00
2018-05-27T04:58:54.541Z,5796.00
2018-05-27T04:59:54.526Z,5900.00
2018-05-27T05:00:54.514Z,5948.00
2018-05-27T05:01:54.503Z,6060.00
2018-05-27T05:02:54.487Z,6192.00
2018-05-27T05:03:54.483Z,6364.00
2018-05-27T05:04:54.460Z,6484.00
2018-05-27T05:05:54.448Z,6648.00
2018-05-27T05:06:54.434Z,6800.00
2018-05-27T05:07:54.422Z,6920.00
2018-05-27T05:08:54.408Z,7008.00
2018-05-27T05:09:54.396Z,7008.00
2018-05-27T05:10:54.383Z,6968.00
2018-05-27T05:11:54.371Z,6960.00
2018-05-27T05:12:54.356Z,6968.00
2018-05-27T05:13:54.345Z,6996.00
2018-05-27T05:14:54.349Z,7004.00
2018-05-27T05:15:54.320Z,7044.00
2018-05-27T05:16:54.311Z,7092.00
2018-05-27T05:17:54.295Z,7124.00
2018-05-27T05:18:54.286Z,7232.00
2018-05-27T05:19:54.278Z,7308.00
2018-05-27T05:20:54.256Z,7368.00
2018-05-27T05:21:54.245Z,7488.00
2018-05-27T05:22:54.232Z,7680.00
2018-05-27T05:23:54.219Z,7776.00
2018-05-27T05:24:54.214Z,8012.00
2018-05-27T05:25:54.194Z,8096.00
2018-05-27T05:26:54.188Z,8312.00
2018-05-27T05:27:54.171Z,8444.00
2018-05-27T05:28:54.156Z,8444.00
2018-05-27T05:29:54.144Z,8560.00
2018-05-27T05:30:54.141Z,8708.00
2018-05-27T05:31:54.122Z,8980.00
2018-05-27T05:32:54.105Z,10620.00
2018-05-27T05:33:54.092Z,18080.00
2018-05-27T05:34:54.083Z,26304.00
2018-05-27T05:35:54.070Z,33664.00
2018-05-27T05:36:54.058Z,31328.00
2018-05-27T05:37:54.044Z,31936.00
2018-05-27T05:38:54.032Z,29472.00
2018-05-27T05:39:54.022Z,27776.00
2018-05-27T05:40:54.018Z,30464.00
2018-05-27T05:41:53.999Z,33696.00
2018-05-27T05:42:53.986Z,34816.00
2018-05-27T05:43:53.975Z,37280.00
2018-05-27T05:44:53.970Z,38816.00
2018-05-27T05:45:53.954Z,37120.00
2018-05-27T05:46:53.954Z,35264.00
2018-05-27T05:47:53.942Z,34176.00
2018-05-27T05:48:53.923Z,35008.00
2018-05-27T05:49:53.916Z,35200.00
2018-05-27T05:50:53.906Z,34912.00
2018-05-27T05:51:53.898Z,34976.00
2018-05-27T05:52:53.891Z,35360.00
2018-05-27T05:53:53.880Z,35072.00
2018-05-27T05:54:53.882Z,31136.00
2018-05-27T05:55:53.864Z,32064.00
2018-05-27T05:56:53.855Z,31584.00
2018-05-27T05:57:53.849Z,33728.00
2018-05-27T05:58:53.840Z,36288.00
2018-05-27T05:59:53.834Z,38240.00
2018-05-27T06:00:53.825Z,39680.00
2018-05-27T06:01:53.873Z,41600.00
2018-05-27T06:02:53.811Z,41824.00
2018-05-27T06:03:53.805Z,28096.00
2018-05-27T06:04:53.798Z,37568.00
2018-05-27T06:05:53.792Z,40032.00
2018-05-27T06:06:53.785Z,41312.00
2018-05-27T06:07:53.791Z,43104.00
2018-05-27T06:08:53.775Z,44224.00
2018-05-27T06:09:53.775Z,44608.00
2018-05-27T06:10:53.762Z,44608.00
2018-05-27T06:11:53.757Z,46464.00
2018-05-27T06:12:53.750Z,47872.00
2018-05-27T06:13:53.745Z,47424.00
2018-05-27T06:14:53.740Z,46912.00
2018-05-27T06:15:53.734Z,48352.00
2018-05-27T06:16:53.738Z,49664.00
2018-05-27T06:17:53.724Z,48768.00
2018-05-27T06:18:53.871Z,47136.00
2018-05-27T06:19:53.718Z,46624.00
2018-05-27T06:20:53.711Z,46752.00
2018-05-27T06:21:53.708Z,48736.00
2018-05-27T06:22:53.704Z,50336.00
2018-05-27T06:23:53.714Z,49472.00
2018-05-27T06:24:53.694Z,50176.00
2018-05-27T06:25:53.690Z,52160.00
2018-05-27T06:26:53.691Z,53088.00
2018-05-27T06:27:53.686Z,50816.00
2018-05-27T06:28:53.685Z,48704.00
2018-05-27T06:29:53.686Z,49120.00
2018-05-27T06:30:53.675Z,48320.00
2018-05-27T06:31:53.673Z,47264.00
2018-05-27T06:32:53.670Z,49696.00
2018-05-27T06:33:53.677Z,57216.00
2018-05-27T06:34:53.667Z,65312.00
2018-05-27T06:35:53.670Z,67392.00
2018-05-27T06:36:53.661Z,66112.00
2018-05-27T06:37:53.664Z,64640.00
2018-05-27T06:38:53.665Z,61344.00
2018-05-27T06:39:53.656Z,56032.00
2018-05-27T06:40:53.653Z,52128.00
2018-05-27T06:41:53.671Z,52640.00
2018-05-27T06:42:53.657Z,55840.00
2018-05-27T06:43:53.651Z,56160.00
2018-05-27T06:44:53.648Z,52416.00
2018-05-27T06:45:53.649Z,49952.00
2018-05-27T06:46:53.650Z,51296.00
2018-05-27T06:47:53.646Z,55136.00
2018-05-27T06:48:53.645Z,57024.00
2018-05-27T06:49:53.642Z,57408.00
2018-05-27T06:50:53.643Z,53696.00
2018-05-27T06:51:53.641Z,46496.00
2018-05-27T06:52:53.643Z,39552.00
2018-05-27T06:53:53.642Z,38592.00
2018-05-27T06:54:53.643Z,38400.00
2018-05-27T06:55:53.642Z,37664.00
2018-05-27T06:56:53.641Z,39136.00
2018-05-27T06:57:53.642Z,36768.00
2018-05-27T06:58:53.641Z,20128.00
2018-05-27T06:59:53.647Z,26944.00
2018-05-27T07:00:53.648Z,21088.00
2018-05-27T07:01:53.641Z,35904.00
2018-05-27T07:02:53.641Z,19936.00
2018-05-27T07:03:53.644Z,17728.00
2018-05-27T07:04:53.685Z,17308.00
2018-05-27T07:05:53.646Z,36128.00
2018-05-27T07:06:53.640Z,35648.00
2018-05-27T07:07:53.641Z,37184.00
2018-05-27T07:08:53.635Z,37536.00
2018-05-27T07:09:53.646Z,34208.00
2018-05-27T07:10:53.639Z,46592.00
2018-05-27T07:11:53.637Z,49280.00
2018-05-27T07:12:53.634Z,50880.00
2018-05-27T07:13:53.636Z,53216.00
2018-05-27T07:14:53.647Z,55840.00
2018-05-27T07:15:53.631Z,58368.00
2018-05-27T07:16:53.629Z,59680.00
2018-05-27T07:17:53.629Z,59392.00
2018-05-27T07:18:53.629Z,59104.00
2018-05-27T07:19:53.629Z,59328.00
2018-05-27T07:20:53.635Z,60608.00
2018-05-27T07:21:53.630Z,60736.00
2018-05-27T07:22:53.626Z,48640.00
2018-05-27T07:24:53.628Z,28384.00
2018-05-27T07:25:53.644Z,30016.00
2018-05-27T07:26:53.635Z,14964.00
2018-05-27T07:27:53.631Z,14744.00
2018-05-27T07:28:53.631Z,14996.00
2018-05-27T07:29:53.632Z,14108.00
2018-05-27T07:30:53.640Z,14656.00
2018-05-27T07:31:53.629Z,14472.00
2018-05-27T07:32:53.652Z,18656.00
2018-05-27T07:33:53.628Z,13528.00
2018-05-27T07:34:53.625Z,13376.00
2018-05-27T07:35:53.641Z,13568.00
2018-05-27T07:36:53.625Z,14160.00
2018-05-27T07:37:53.623Z,14960.00
2018-05-27T07:38:53.624Z,14188.00
2018-05-27T07:39:53.619Z,15088.00
2018-05-27T07:40:53.619Z,13692.00
2018-05-27T07:41:53.638Z,13564.00
2018-05-27T07:42:53.614Z,13736.00
2018-05-27T07:43:53.613Z,13804.00
2018-05-27T07:44:53.609Z,15196.00
2018-05-27T07:45:53.606Z,21920.00
2018-05-27T07:46:53.604Z,37760.00
2018-05-27T07:47:53.599Z,36768.00
2018-05-27T07:48:53.593Z,13488.00
2018-05-27T07:49:53.601Z,13360.00
2018-05-27T07:50:53.590Z,14020.00
2018-05-27T07:51:53.599Z,14508.00
2018-05-27T07:52:53.582Z,14256.00
2018-05-27T07:53:53.586Z,14028.00
2018-05-27T07:54:53.591Z,14168.00
2018-05-27T07:55:53.622Z,14328.00
2018-05-27T07:56:53.568Z,16108.00
2018-05-27T07:57:53.565Z,61600.00
2018-05-27T07:58:53.563Z,33440.00
2018-05-27T07:59:53.559Z,29632.00
2018-05-27T08:00:53.558Z,67936.00
2018-05-27T08:01:53.545Z,13152.00
2018-05-27T08:02:53.543Z,18924.00
2018-05-27T08:03:53.541Z,65504.00
2018-05-27T08:04:53.534Z,13208.00
2018-05-27T08:05:53.534Z,39424.00
2018-05-27T08:06:53.525Z,56992.00
2018-05-27T08:07:53.531Z,18860.00
2018-05-27T08:08:53.531Z,16404.00
2018-05-27T08:09:53.510Z,13732.00
2018-05-27T08:10:53.509Z,13016.00
2018-05-27T08:11:53.507Z,12880.00
2018-05-27T08:12:53.507Z,13032.00
2018-05-27T08:13:53.497Z,13032.00
2018-05-27T08:14:53.490Z,13224.00
2018-05-27T08:15:53.485Z,12856.00
2018-05-27T08:16:53.478Z,12908.00
2018-05-27T08:17:53.486Z,13072.00
2018-05-27T08:18:53.469Z,13156.00
2018-05-27T08:19:53.476Z,18292.00
2018-05-27T08:20:53.461Z,12960.00
2018-05-27T08:21:53.461Z,12848.00
2018-05-27T08:22:53.459Z,12816.00
2018-05-27T08:23:53.452Z,12868.00
2018-05-27T08:24:53.440Z,12828.00
2018-05-27T08:25:53.436Z,12788.00
2018-05-27T08:26:53.439Z,12708.00
2018-05-27T08:27:53.443Z,12728.00
2018-05-27T08:28:53.421Z,12812.00
2018-05-27T08:29:53.429Z,17508.00
2018-05-27T08:30:53.406Z,12708.00
2018-05-27T08:31:53.400Z,14328.00
2018-05-27T08:32:53.394Z,33984.00
2018-05-27T08:33:53.390Z,13008.00
2018-05-27T08:34:53.394Z,13236.00
2018-05-27T08:35:53.376Z,13244.00
2018-05-27T08:36:53.405Z,12956.00
2018-05-27T08:37:53.373Z,13340.00
2018-05-27T08:38:53.366Z,13608.00
2018-05-27T08:39:53.352Z,13096.00
2018-05-27T08:40:53.353Z,13828.00
2018-05-27T08:41:53.339Z,13608.00
2018-05-27T08:42:53.331Z,27264.00
2018-05-27T08:43:53.327Z,17912.00
2018-05-27T08:44:53.320Z,13808.00
2018-05-27T08:45:53.325Z,13400.00
2018-05-27T08:46:53.308Z,14116.00
2018-05-27T08:47:53.315Z,14472.00
2018-05-27T08:48:53.332Z,16096.00
2018-05-27T08:49:53.288Z,15516.00
2018-05-27T08:50:53.282Z,18104.00
2018-05-27T08:51:53.276Z,20000.00
2018-05-27T08:52:53.274Z,16036.00
2018-05-27T08:53:53.261Z,14704.00
2018-05-27T08:54:53.269Z,15912.00
2018-05-27T08:55:53.258Z,16884.00
2018-05-27T08:56:53.247Z,16796.00
2018-05-27T08:57:53.237Z,27872.00
2018-05-27T08:58:53.234Z,16608.00
2018-05-27T08:59:53.225Z,70272.00
2018-05-27T09:00:53.222Z,82560.00
2018-05-27T09:01:53.214Z,71616.00
2018-05-27T09:02:53.209Z,19328.00
2018-05-27T09:03:53.203Z,56544.00
2018-05-27T09:04:53.197Z,18912.00
2018-05-27T09:05:53.193Z,19104.00
2018-05-27T09:06:53.188Z,98784.00
2018-05-27T09:07:53.184Z,71616.00
2018-05-27T09:08:53.214Z,19264.00
2018-05-27T09:09:53.174Z,25728.00
2018-05-27T09:10:53.169Z,17504.00
2018-05-27T09:11:53.165Z,17244.00
2018-05-27T09:12:53.162Z,16076.00
2018-05-27T09:13:53.164Z,115776.00
2018-05-27T09:14:53.152Z,20160.00
2018-05-27T09:15:53.157Z,24576.00
2018-05-27T09:16:53.144Z,88160.00
2018-05-27T09:17:53.153Z,46208.00
2018-05-27T09:18:53.139Z,91648.00
2018-05-27T09:19:53.133Z,17788.00
2018-05-27T09:20:53.131Z,16896.00
2018-05-27T09:21:53.128Z,29184.00
2018-05-27T09:22:53.123Z,88704.00
2018-05-27T09:23:53.120Z,20000.00
2018-05-27T09:24:53.131Z,28192.00
2018-05-27T09:25:53.115Z,92416.00
2018-05-27T09:26:53.113Z,19488.00
2018-05-27T09:27:53.110Z,18976.00
2018-05-27T09:28:53.118Z,32448.00
2018-05-27T09:29:53.104Z,69216.00
2018-05-27T09:30:53.108Z,20480.00
2018-05-27T09:31:53.101Z,23008.00
2018-05-27T09:32:53.095Z,24032.00
2018-05-27T09:33:53.097Z,20352.00
2018-05-27T09:34:53.092Z,37568.00
2018-05-27T09:35:53.087Z,28864.00
2018-05-27T09:36:53.092Z,55424.00
2018-05-27T09:37:53.084Z,29984.00
2018-05-27T09:38:53.091Z,26176.00
2018-05-27T09:39:53.087Z,40416.00
2018-05-27T09:40:53.081Z,67232.00
2018-05-27T09:41:53.076Z,89984.00
2018-05-27T09:42:53.076Z,78304.00
2018-05-27T09:43:53.079Z,82528.00
2018-05-27T09:44:53.078Z,23168.00
2018-05-27T09:45:53.081Z,78240.00
2018-05-27T09:46:53.071Z,87648.00
2018-05-27T09:47:53.072Z,90048.00
2018-05-27T09:48:53.072Z,25504.00
2018-05-27T09:49:53.069Z,24672.00
2018-05-27T09:50:53.069Z,64512.00
2018-05-27T09:51:53.073Z,22112.00
2018-05-27T09:52:53.067Z,98496.00
2018-05-27T09:53:53.067Z,19872.00
2018-05-27T09:54:53.071Z,20512.00
2018-05-27T09:55:53.076Z,21792.00
2018-05-27T09:56:53.066Z,26208.00
2018-05-27T09:57:53.226Z,20992.00
2018-05-27T09:58:53.064Z,22944.00
2018-05-27T09:59:53.067Z,22272.00
2018-05-27T10:00:53.069Z,65856.00
2018-05-27T10:01:53.067Z,83808.00
2018-05-27T10:02:53.069Z,91680.00
2018-05-27T10:03:53.068Z,95616.00
2018-05-27T10:04:53.057Z,96224.00
2018-05-27T10:05:53.057Z,101760.00
2018-05-27T10:06:53.069Z,107936.00
2018-05-27T10:07:53.065Z,110272.00
2018-05-27T10:08:53.057Z,107808.00
2018-05-27T10:09:53.065Z,105344.00
2018-05-27T10:10:53.060Z,108736.00
2018-05-27T10:11:53.061Z,103424.00
2018-05-27T10:12:53.091Z,101856.00
2018-05-27T10:13:53.080Z,106816.00
2018-05-27T10:14:53.070Z,8928.00
2018-05-27T10:15:53.073Z,106464.00
2018-05-27T10:16:53.072Z,104160.00
2018-05-27T10:17:53.077Z,105056.00
2018-05-27T10:18:53.134Z,99424.00
2018-05-27T10:19:53.093Z,92992.00
2018-05-27T10:20:53.084Z,93056.00
2018-05-27T10:21:53.089Z,96256.00
2018-05-27T10:22:53.093Z,88320.00
2018-05-27T10:23:53.097Z,89952.00
2018-05-27T10:24:53.102Z,90144.00
2018-05-27T10:25:53.151Z,102048.00
2018-05-27T10:26:53.107Z,109856.00
2018-05-27T10:27:53.113Z,103680.00
2018-05-27T10:28:53.113Z,99968.00
2018-05-27T10:29:53.118Z,84000.00
2018-05-27T10:30:53.120Z,89408.00
2018-05-27T10:31:53.177Z,76064.00
2018-05-27T10:32:53.195Z,78976.00
2018-05-27T10:33:53.140Z,80000.00
2018-05-27T10:34:53.139Z,90112.00
2018-05-27T10:35:53.142Z,85952.00
2018-05-27T10:36:53.149Z,82752.00
2018-05-27T10:37:53.149Z,85184.00
2018-05-27T10:38:53.161Z,92256.00
2018-05-27T10:39:53.158Z,92736.00
2018-05-27T10:40:53.163Z,90080.00
2018-05-27T10:41:53.168Z,90016.00
2018-05-27T10:42:53.179Z,90144.00
2018-05-27T10:43:53.184Z,92960.00
2018-05-27T10:44:53.185Z,94304.00
2018-05-27T10:45:53.189Z,93376.00
2018-05-27T10:46:53.208Z,91616.00
2018-05-27T10:47:53.201Z,72320.00
2018-05-27T10:48:53.207Z,69952.00
2018-05-27T10:49:53.215Z,93024.00
2018-05-27T10:50:53.217Z,82592.00
2018-05-27T10:51:53.228Z,86144.00
2018-05-27T10:52:53.243Z,97088.00
2018-05-27T10:53:53.236Z,97056.00
2018-05-27T10:54:53.249Z,96128.00
2018-05-27T10:55:53.244Z,94560.00
2018-05-27T10:56:53.256Z,91168.00
2018-05-27T10:57:53.262Z,91008.00
2018-05-27T10:58:53.270Z,98080.00
2018-05-27T10:59:53.314Z,100512.00
2018-05-27T11:00:53.287Z,99904.00
2018-05-27T11:01:53.277Z,97728.00
2018-05-27T11:02:53.290Z,98624.00
2018-05-27T11:03:53.291Z,101440.00
2018-05-27T11:04:53.296Z,98496.00
2018-05-27T11:05:53.343Z,88864.00
2018-05-27T11:06:53.402Z,93952.00
2018-05-27T11:07:53.323Z,99136.00
2018-05-27T11:08:53.313Z,97248.00
2018-05-27T11:09:53.321Z,92736.00
2018-05-27T11:10:53.337Z,91520.00
2018-05-27T11:11:53.333Z,90688.00
2018-05-27T11:12:53.332Z,90912.00
2018-05-27T11:13:53.338Z,90304.00
2018-05-27T11:14:53.347Z,90976.00
2018-05-27T11:15:53.351Z,89184.00
2018-05-27T11:17:53.358Z,75392.00
2018-05-27T11:18:53.411Z,76800.00
2018-05-27T11:19:53.371Z,78176.00
2018-05-27T11:20:53.374Z,79872.00
2018-05-27T11:21:53.381Z,78112.00
2018-05-27T11:22:53.388Z,73664.00
2018-05-27T11:23:53.390Z,77568.00
2018-05-27T11:24:53.411Z,75296.00
2018-05-27T11:25:53.417Z,74688.00
2018-05-27T11:26:53.409Z,76448.00
2018-05-27T11:27:53.411Z,79360.00
2018-05-27T11:28:53.414Z,79232.00
2018-05-27T11:29:53.467Z,72832.00
2018-05-27T11:30:53.425Z,62976.00
2018-05-27T11:31:53.431Z,68608.00
2018-05-27T11:32:53.436Z,67680.00
2018-05-27T11:33:53.456Z,70272.00
2018-05-27T11:34:53.551Z,42496.00
2018-05-27T11:35:53.456Z,37664.00
2018-05-27T11:36:53.505Z,38496.00
2018-05-27T11:37:53.465Z,21280.00
2018-05-27T11:38:53.476Z,23968.00
2018-05-27T11:39:53.462Z,35040.00
2018-05-27T11:40:53.466Z,47424.00
2018-05-27T11:41:53.475Z,47808.00
2018-05-27T11:42:53.469Z,71360.00
2018-05-27T11:43:53.478Z,45088.00
2018-05-27T11:44:53.476Z,23968.00
2018-05-27T11:45:53.476Z,22112.00
2018-05-27T11:46:53.473Z,19744.00
2018-05-27T11:47:53.493Z,18944.00
2018-05-27T11:48:53.479Z,18144.00
2018-05-27T11:49:53.488Z,18304.00
2018-05-27T11:50:53.477Z,18592.00
2018-05-27T11:51:53.478Z,18560.00
2018-05-27T11:52:53.476Z,18592.00
2018-05-27T11:53:53.478Z,19264.00
2018-05-27T11:54:53.476Z,19680.00
2018-05-27T11:55:53.476Z,19744.00
2018-05-27T11:56:53.477Z,19776.00
2018-05-27T11:57:53.476Z,19744.00
2018-05-27T11:58:53.482Z,19744.00
2018-05-27T11:59:53.473Z,18784.00
2018-05-27T12:00:53.471Z,18304.00
2018-05-27T12:01:53.471Z,18688.00
2018-05-27T12:02:53.470Z,18624.00
2018-05-27T12:03:53.467Z,18144.00
2018-05-27T12:04:53.475Z,17664.00
2018-05-27T12:05:53.462Z,18112.00
2018-05-27T12:06:53.469Z,18432.00
2018-05-27T12:07:53.460Z,18624.00
2018-05-27T12:08:53.457Z,17824.00
2018-05-27T12:09:53.455Z,17184.00
2018-05-27T12:10:53.451Z,17952.00
2018-05-27T12:11:53.444Z,18240.00
2018-05-27T12:12:53.441Z,18272.00
2018-05-27T12:13:53.442Z,18464.00
2018-05-27T12:14:53.435Z,17696.00
2018-05-27T12:15:53.432Z,16724.00